Orbital elements of SL-12 R/B(2)
| Launched | 9 June 1986 |
| Flight ended | – |
| Launch site | Tyuratam Missile and Space Center, Kazakhstan (Also known as Baikonur Cosmodrome) |
| Owner | Commonwealth of Independent States (former USSR) |
| NORAD ID | 16797 |
| Date fetched |
Epoch osculation |
Inc. [°] |
Ecc. | RA asc node [hr] |
Arg Peri. [°] |
Mean anom [°] |
Mean motion [rev/day] |
Abs. mag |
| Date fetched |
Epoch osculation |
Inc. [°] |
Ecc. | RA asc node [hr] |
Arg Peri. [°] |
Mean anom [°] |
Mean motion [rev/day] |
Abs. mag |
| 2026 May 05 17:57 | 2026 May 05 08:00:36 | 11.4488 | 0.00083 | 21.6984 | 210.7694 | 159.2981 | 0.97671 | – |
| 2026 May 04 17:57 | 2026 Apr 30 05:01:47 | 11.4566 | 0.00083 | 21.7004 | 210.5262 | 159.2981 | 0.97671 | – |
| 2026 May 03 17:57 | 2026 Apr 30 05:01:47 | 11.4566 | 0.00083 | 21.7004 | 210.5262 | 159.2981 | 0.97671 | – |
| 2026 May 02 17:57 | 2026 Apr 30 05:01:47 | 11.4566 | 0.00083 | 21.7004 | 210.5262 | 159.2981 | 0.97671 | – |
| 2026 May 01 17:56 | 2026 Apr 30 05:01:47 | 11.4566 | 0.00083 | 21.7004 | 210.5262 | 159.2981 | 0.97671 | – |
| 2026 Apr 30 17:56 | 2026 Apr 30 05:01:47 | 11.4566 | 0.00083 | 21.7004 | 210.5262 | 159.2981 | 0.97671 | – |
| 2026 Apr 29 17:57 | 2026 Apr 24 12:23:15 | 11.4649 | 0.00083 | 21.7026 | 210.1115 | 159.2981 | 0.97671 | – |
| 2026 Apr 28 17:56 | 2026 Apr 24 12:23:15 | 11.4649 | 0.00083 | 21.7026 | 210.1115 | 159.2981 | 0.97671 | – |
| 2026 Apr 27 17:58 | 2026 Apr 24 12:23:15 | 11.4649 | 0.00083 | 21.7026 | 210.1115 | 159.2981 | 0.97671 | – |
| 2026 Apr 26 17:58 | 2026 Apr 24 12:23:15 | 11.4649 | 0.00083 | 21.7026 | 210.1115 | 159.2981 | 0.97671 | – |
| 2026 Apr 25 17:58 | 2026 Apr 24 12:23:15 | 11.4649 | 0.00083 | 21.7026 | 210.1115 | 159.2981 | 0.97671 | – |
| 2026 Apr 24 17:59 | 2026 Apr 24 12:23:15 | 11.4649 | 0.00083 | 21.7026 | 210.1115 | 159.2981 | 0.97671 | – |
| 2026 Apr 23 17:57 | 2026 Apr 19 11:06:43 | 11.4722 | 0.00082 | 21.7047 | 210.3784 | 159.2981 | 0.97671 | – |
| 2026 Apr 22 17:57 | 2026 Apr 19 11:06:43 | 11.4722 | 0.00082 | 21.7047 | 210.3784 | 159.2981 | 0.97671 | – |
| 2026 Apr 21 17:57 | 2026 Apr 19 11:06:43 | 11.4722 | 0.00082 | 21.7047 | 210.3784 | 159.2981 | 0.97671 | – |
| 2026 Apr 20 17:57 | 2026 Apr 19 11:06:43 | 11.4722 | 0.00082 | 21.7047 | 210.3784 | 159.2981 | 0.97671 | – |
| 2026 Apr 19 17:58 | 2026 Apr 19 11:06:43 | 11.4722 | 0.00082 | 21.7047 | 210.3784 | 159.2981 | 0.97671 | – |
| 2026 Apr 18 17:56 | 2026 Apr 12 18:33:18 | 11.4820 | 0.00082 | 21.7074 | 211.3726 | 159.2981 | 0.97671 | – |
| 2026 Apr 16 17:57 | 2026 Apr 12 18:33:18 | 11.4820 | 0.00082 | 21.7074 | 211.3726 | 159.2981 | 0.97671 | – |
| 2026 Apr 14 17:57 | 2026 Apr 12 18:33:18 | 11.4820 | 0.00082 | 21.7074 | 211.3726 | 159.2981 | 0.97671 | – |
| 2026 Apr 13 17:57 | 2026 Apr 12 18:33:18 | 11.4820 | 0.00082 | 21.7074 | 211.3726 | 159.2981 | 0.97671 | – |
| 2026 Apr 12 17:57 | 2026 Apr 08 12:02:16 | 11.4881 | 0.00082 | 21.7090 | 211.7493 | 159.2981 | 0.97671 | – |
| 2026 Apr 11 17:57 | 2026 Apr 08 12:02:16 | 11.4881 | 0.00082 | 21.7090 | 211.7493 | 159.2981 | 0.97671 | – |
| 2026 Apr 10 17:58 | 2026 Apr 08 12:02:16 | 11.4881 | 0.00082 | 21.7090 | 211.7493 | 159.2981 | 0.97671 | – |
| 2026 Apr 09 18:01 | 2026 Apr 08 12:02:16 | 11.4881 | 0.00082 | 21.7090 | 211.7493 | 159.2981 | 0.97671 | – |
| 2026 Apr 08 17:57 | 2026 Apr 08 12:02:16 | 11.4881 | 0.00082 | 21.7090 | 211.7493 | 159.2981 | 0.97671 | – |